Terminal Aerodrome Forecast
Issued by NWS

Home | Current Version | Previous Version | Graphics & Text | Print | Product List | Glossary On
Versions: 1 2 3 4 5 6 7 8 9 10 11 12 13 14 15 16 17 18
000
FTUS43 KGRB 260500
TAFCWA
TAF
KCWA 260531Z 2606/2706 20005KT P6SM SCT025 BKN050
      TEMPO 2606/2609 SCT018 BKN025
     FM260900 23004KT 5SM BR SCT009 BKN015
     FM261400 29008KT P6SM SCT025
      AMD LTD TO CLD VIS AND WIND TIL 261200=

USA.gov is the U.S. government's official web portal to all federal, state and local government web resources and services.